Serov, Russia
Current Conditions -  °F | °C
As of 6:30 AM on Thursday 27 Nov 2014 (Local Time) from USPP Reporting Station
Clear Clear  
Wind Chill:   Ceiling: Unl
Heat Index:   Visibility: 6mi
Dew Point:   Wind: 0mph
Humidity: 92%   Direction: NA
Pressure: 30.39"   Gusts: NA
Location:  59.61°N, 60.58°E
Report Text: USPP 270130Z 00000MPS CAVOK M14/M15 Q1029 21290145 NOSIG RMKQFE761/1014
Loading
Personal Weather Stations






























Interactive Weather Map New forecast layout! Learn more

10-Day Weather Forecast

Advertisements
Track Severe Weather on mobile